Alts de Borinquen Gdns, Puerto Rico
Current Conditions -  °F | °C
As of 8:56 AM on Sunday 23 Nov 2014 (Local Time) from TJSJ Reporting Station
Scattered Clouds Scattered Clouds  
Wind Chill: 27°   Ceiling: Unl
Heat Index: 31°   Visibility: 9mi
Dew Point: 24°   Wind: 12mph
Humidity: 85%   Direction: 80°E
Pressure: 30.03"   Gusts: NA
Location:  18.3754°N, 66.0577°W
Report Text: TJSJ 231256Z 08010KT 9SM FEW025 SCT036 27/24 A3003 RMK AO2 SLP169 VCSH E-SE VIS LWR E-SE T02720244 $
Loading
Personal Weather Stations






























Interactive Weather Map New forecast layout! Learn more

10-Day Weather Forecast

Advertisements
Track Severe Weather on mobile